This is the latest recevied weather packets stored in our database for station/object OE5XFR. If no packets are shown the sender has not sent any weather packets the latest 10 day(s).
| Time | Temp. | Humidity | Pressure | Rain* | Wind** | Luminosity | Snow |
|---|---|---|---|---|---|---|---|
| 1777718716 | 18.89° C | 27% | 1024 hPa | 0 mm | - | - | - |
| 1777717996 | 18.89° C | 30% | 1024 hPa | 0 mm | - | - | - |
| 1777717276 | 18.33° C | 31% | 1024 hPa | 0 mm | - | - | - |
| 1777716556 | 18.33° C | 31% | 1024 hPa | 0 mm | - | - | - |
| 1777715836 | 17.78° C | 31% | 1024 hPa | 0 mm | - | - | - |
| 1777715116 | 17.78° C | 32% | 1024 hPa | 0 mm | - | - | - |
| 1777714396 | 17.78° C | 32% | 1024 hPa | 0 mm | - | - | - |
| 1777713676 | 17.22° C | 31% | 1024 hPa | 0 mm | - | - | - |
| 1777712955 | 17.22° C | 33% | 1024 hPa | 0 mm | - | - | - |
| 1777712236 | 16.11° C | 36% | 1024 hPa | 0 mm | - | - | - |
| 1777711516 | 16.11° C | 36% | 1024 hPa | 0 mm | - | - | - |
| 1777710796 | 15° C | 39% | 1025 hPa | 0 mm | - | - | - |
| 1777710074 | 14.44° C | 39% | 1025 hPa | 0 mm | - | - | - |
| 1777709355 | 13.89° C | 40% | 1025 hPa | 0 mm | - | - | - |
| 1777708635 | 13.33° C | 44% | 1025 hPa | 0 mm | - | - | - |
| 1777707915 | 13.33° C | 44% | 1025 hPa | 0 mm | - | - | - |
| 1777707195 | 12.78° C | 47% | 1025 hPa | 0 mm | - | - | - |
| 1777705754 | 11.11° C | 50% | 1025 hPa | 0 mm | - | - | - |
| 1777705034 | 10.56° C | 53% | 1025 hPa | 0 mm | - | - | - |
| 1777704315 | 10° C | 57% | 1025 hPa | 0 mm | - | - | - |
| 1777703594 | 9.44° C | 59% | 1025 hPa | 0 mm | - | - | - |
| 1777702874 | 8.33° C | 63% | 1025 hPa | 0 mm | - | - | - |
| 1777702154 | 6.67° C | 71% | 1025 hPa | 0 mm | - | - | - |
| 1777701434 | 5.56° C | 73% | 1025 hPa | 0 mm | - | - | - |
| 1777700714 | 5.56° C | 73% | 1025 hPa | 0 mm | - | - | - |
* Rain latest hour (hover to see other rain measurements)
** Current wind speed in m/s (hover to see current wind gust speed)